Time;durP1;ratioP1;P1;durP2;ratioP2;P2;SDS_P1;SDS_P2;PMS_P1;PMS_P2;Temp;Humidity;BMP_temperature;BMP_pressure;BME280_temperature;BME280_humidity;BME280_pressure;Samples;Min_cycle;Max_cycle;Signal;HPM_P1;HPM_P2
2023/01/28 00:01:11;;;;;;;3.05;2.25;;;3.00;99.90;;;;;;10181049;28;20026;-69
2023/01/28 00:06:20;;;;;;;4.63;2.63;;;3.10;99.90;;;;;;10182908;28;20375;-70
2023/01/28 00:11:12;;;;;;;6.47;2.92;;;3.10;99.90;;;;;;10183780;28;20444;-70
2023/01/28 00:16:07;;;;;;;3.40;2.83;;;3.10;99.90;;;;;;10182995;28;20394;-69
2023/01/28 00:21:04;;;;;;;5.93;2.53;;;3.20;99.90;;;;;;10182534;28;20032;-69
2023/01/28 00:26:00;;;;;;;5.60;2.25;;;3.10;99.90;;;;;;10183045;28;20023;-69
2023/01/28 00:30:51;;;;;;;4.68;2.40;;;3.10;99.90;;;;;;10183501;28;20032;-71
2023/01/28 00:35:42;;;;;;;3.92;1.90;;;3.10;99.90;;;;;;10175721;28;20016;-72
2023/01/28 00:40:33;;;;;;;5.60;2.25;;;3.10;99.90;;;;;;10185994;28;20027;-71
2023/01/28 00:45:24;;;;;;;3.15;1.92;;;3.10;99.90;;;;;;10182174;28;20039;-70
2023/01/28 00:50:14;;;;;;;3.60;2.22;;;3.10;99.90;;;;;;10180968;28;20031;-71
2023/01/28 00:55:06;;;;;;;3.90;1.85;;;3.20;99.90;;;;;;10194417;28;20106;-71
2023/01/28 00:59:57;;;;;;;1.95;1.35;;;3.20;99.90;;;;;;10181721;28;20039;-73
2023/01/28 01:05:00;;;;;;;3.40;2.13;;;3.20;99.90;;;;;;10172375;28;20029;-71
2023/01/28 01:09:50;;;;;;;1.95;1.45;;;3.20;99.90;;;;;;10162957;28;20069;-73
2023/01/28 01:14:41;;;;;;;2.25;1.27;;;3.20;99.90;;;;;;10167408;28;20103;-68
2023/01/28 01:19:31;;;;;;;3.45;1.60;;;3.10;99.90;;;;;;10169746;28;20036;-71
2023/01/28 01:24:22;;;;;;;2.83;1.38;;;3.00;99.90;;;;;;10170676;28;20032;-70
2023/01/28 01:29:13;;;;;;;2.33;1.48;;;2.90;99.90;;;;;;10180488;28;20028;-70
2023/01/28 01:34:03;;;;;;;2.45;1.30;;;2.90;99.90;;;;;;10179946;28;20035;-69
2023/01/28 01:38:54;;;;;;;4.28;1.48;;;2.80;99.90;;;;;;10180082;28;20024;-71
2023/01/28 01:43:53;;;;;;;1.65;1.15;;;2.90;99.90;;;;;;10184162;28;20020;-70
2023/01/28 01:48:44;;;;;;;1.65;1.45;;;2.90;99.90;;;;;;10179473;28;20040;-70
2023/01/28 01:53:37;;;;;;;3.97;1.58;;;3.00;99.90;;;;;;10178047;28;20394;-72
2023/01/28 01:58:32;;;;;;;3.10;1.65;;;3.00;99.90;;;;;;10180014;28;20208;-72
2023/01/28 02:03:30;;;;;;;1.60;1.15;;;3.00;99.90;;;;;;10179874;28;20031;-70
2023/01/28 02:08:21;;;;;;;4.03;1.70;;;3.00;99.90;;;;;;10181262;28;20503;-73
2023/01/28 02:13:13;;;;;;;2.88;1.58;;;3.00;99.90;;;;;;10195565;28;20056;-69
2023/01/28 02:18:04;;;;;;;3.33;1.90;;;3.00;99.90;;;;;;10181008;28;20496;-70
2023/01/28 02:23:24;;;;;;;2.17;1.45;;;3.10;99.90;;;;;;10178722;28;20104;-73
2023/01/28 02:28:26;;;;;;;1.60;1.17;;;3.10;99.90;;;;;;10178891;28;20032;-71
2023/01/28 02:33:35;;;;;;;3.05;1.67;;;3.20;99.90;;;;;;10178318;28;20024;-71
2023/01/28 02:38:31;;;;;;;2.92;1.27;;;3.20;99.90;;;;;;10179055;28;20024;-69
2023/01/28 02:43:31;;;;;;;0.98;0.88;;;3.30;99.90;;;;;;10183684;28;20047;-70
2023/01/28 02:48:22;;;;;;;3.10;1.25;;;3.30;99.90;;;;;;10177745;28;20052;-67
2023/01/28 02:53:42;;;;;;;1.80;0.98;;;3.20;99.90;;;;;;10176904;28;20027;-70
2023/01/28 02:58:54;;;;;;;2.28;1.65;;;3.20;99.90;;;;;;10178286;28;20024;-69
2023/01/28 03:04:00;;;;;;;2.40;1.23;;;3.20;99.90;;;;;;10177893;28;20085;-69
2023/01/28 03:40:06;;;;;;;2.20;1.08;;;3.20;99.90;;;;;;10178045;28;20232;-69
2023/01/28 03:44:57;;;;;;;1.47;0.90;;;3.20;99.90;;;;;;10179580;28;20032;-72
2023/01/28 03:49:51;;;;;;;2.17;1.60;;;3.20;99.90;;;;;;10182211;28;20103;-69
2023/01/28 03:54:41;;;;;;;3.63;1.33;;;3.20;99.90;;;;;;10184235;28;20028;-70
2023/01/28 03:59:33;;;;;;;4.30;1.83;;;3.20;99.90;;;;;;10184434;28;20024;-72
2023/01/28 04:04:23;;;;;;;2.33;1.15;;;3.20;99.90;;;;;;10180923;28;20024;-69
2023/01/28 04:09:14;;;;;;;1.92;0.82;;;3.20;99.90;;;;;;10160684;28;20024;-69
2023/01/28 04:14:05;;;;;;;4.30;1.45;;;3.20;99.90;;;;;;10170299;28;20037;-71
2023/01/28 04:18:56;;;;;;;1.85;1.55;;;3.20;99.90;;;;;;10173872;28;20036;-68
2023/01/28 04:23:47;;;;;;;1.80;1.30;;;3.20;99.90;;;;;;10174728;28;20024;-69
2023/01/28 04:28:37;;;;;;;3.08;1.30;;;3.20;99.90;;;;;;10182806;28;20039;-69
2023/01/28 04:33:28;;;;;;;2.40;1.27;;;3.30;99.90;;;;;;10182485;28;20569;-68
2023/01/28 04:38:19;;;;;;;2.40;1.60;;;3.20;99.90;;;;;;10180958;28;20016;-71
2023/01/28 04:43:09;;;;;;;3.70;1.90;;;3.20;99.90;;;;;;10186247;28;20035;-70
2023/01/28 04:48:00;;;;;;;2.42;1.50;;;3.20;99.90;;;;;;10181992;28;20051;-70
2023/01/28 04:52:50;;;;;;;2.05;1.30;;;3.20;99.90;;;;;;10195144;28;20101;-71
2023/01/28 04:57:41;;;;;;;2.75;1.67;;;3.20;99.90;;;;;;10180031;28;20016;-70
2023/01/28 05:02:32;;;;;;;3.05;1.77;;;3.20;99.90;;;;;;10181944;28;20032;-69
2023/01/28 05:07:22;;;;;;;2.10;1.45;;;3.30;99.90;;;;;;10182269;28;20024;-72
2023/01/28 05:12:13;;;;;;;5.00;1.60;;;3.30;99.90;;;;;;10181388;28;20160;-69
2023/01/28 05:17:04;;;;;;;4.13;1.60;;;3.10;99.90;;;;;;10181044;28;20099;-69
2023/01/28 05:21:54;;;;;;;3.92;2.13;;;3.10;99.90;;;;;;10180901;28;20405;-72
2023/01/28 05:26:45;;;;;;;3.63;1.95;;;3.20;99.90;;;;;;10181226;28;20031;-72
2023/01/28 05:31:36;;;;;;;2.38;1.42;;;3.20;99.90;;;;;;10180594;28;20521;-68
2023/01/28 05:36:26;;;;;;;2.75;1.65;;;3.20;99.90;;;;;;10180804;28;20069;-70
2023/01/28 05:41:17;;;;;;;2.10;1.85;;;3.20;99.90;;;;;;10185937;28;20032;-68
2023/01/28 05:46:07;;;;;;;2.55;1.60;;;3.30;99.90;;;;;;10187118;28;20474;-71
2023/01/28 05:50:58;;;;;;;4.35;2.00;;;3.20;99.90;;;;;;10190524;28;20432;-70
2023/01/28 05:55:50;;;;;;;2.83;1.83;;;3.20;99.90;;;;;;10187844;28;20024;-71
2023/01/28 06:00:41;;;;;;;4.97;2.30;;;3.20;99.90;;;;;;10180216;28;20039;-72
2023/01/28 06:05:31;;;;;;;3.00;2.00;;;3.20;99.90;;;;;;10152432;28;20031;-72
2023/01/28 06:10:22;;;;;;;4.72;2.20;;;3.10;99.90;;;;;;10164355;28;20036;-72
2023/01/28 06:15:13;;;;;;;2.65;1.70;;;3.00;99.90;;;;;;10178852;28;20039;-68
2023/01/28 06:20:05;;;;;;;6.05;2.35;;;3.00;99.90;;;;;;10165979;28;20398;-69
2023/01/28 06:24:55;;;;;;;4.30;2.08;;;3.00;99.90;;;;;;10178643;28;20032;-70
2023/01/28 06:29:46;;;;;;;3.03;1.60;;;3.00;99.90;;;;;;10179055;28;20039;-69
2023/01/28 06:34:37;;;;;;;5.68;2.70;;;3.00;99.90;;;;;;10168532;28;20032;-70
2023/01/28 06:39:30;;;;;;;5.22;2.08;;;3.00;99.90;;;;;;10167516;28;20028;-68
2023/01/28 06:44:22;;;;;;;2.70;1.67;;;3.00;99.90;;;;;;10178553;28;20024;-69
2023/01/28 06:49:12;;;;;;;2.88;1.80;;;3.00;99.90;;;;;;10177371;28;20028;-69
2023/01/28 06:54:03;;;;;;;4.50;2.40;;;2.90;99.90;;;;;;10174474;28;20028;-69
2023/01/28 06:58:54;;;;;;;3.97;2.05;;;2.90;99.90;;;;;;10178109;28;20111;-72
2023/01/28 07:03:45;;;;;;;4.28;1.95;;;2.90;99.90;;;;;;10179147;28;20393;-69
2023/01/28 07:08:38;;;;;;;3.63;2.20;;;2.90;99.90;;;;;;10160735;28;20310;-72
2023/01/28 07:13:29;;;;;;;3.95;2.38;;;2.80;99.90;;;;;;10178486;28;20020;-69
2023/01/28 07:18:20;;;;;;;4.63;2.55;;;2.80;99.90;;;;;;10177929;28;20042;-69
2023/01/28 07:23:12;;;;;;;4.93;2.70;;;2.80;99.90;;;;;;10179960;28;20550;-70
2023/01/28 07:28:02;;;;;;;4.35;2.60;;;2.70;99.90;;;;;;10185629;28;20032;-69
2023/01/28 07:32:55;;;;;;;5.32;2.67;;;2.70;99.90;;;;;;10185089;28;20084;-70
2023/01/28 07:37:55;;;;;;;5.80;3.05;;;2.70;99.90;;;;;;10185175;28;20023;-69
2023/01/28 07:42:46;;;;;;;7.53;4.38;;;2.70;99.90;;;;;;10187467;28;20409;-69
2023/01/28 07:47:37;;;;;;;5.00;2.88;;;2.60;99.90;;;;;;10184241;28;20044;-69
2023/01/28 07:52:27;;;;;;;6.32;2.72;;;2.70;99.90;;;;;;10197839;28;20048;-72
2023/01/28 07:57:22;;;;;;;5.93;3.42;;;2.80;99.90;;;;;;10184678;28;20027;-70
2023/01/28 08:02:13;;;;;;;6.63;4.47;;;2.80;99.90;;;;;;10180382;28;20013;-68
2023/01/28 08:07:04;;;;;;;7.57;3.67;;;2.70;99.90;;;;;;10177204;28;20096;-71
2023/01/28 08:11:54;;;;;;;6.88;3.95;;;2.80;99.90;;;;;;10184159;28;20104;-71
2023/01/28 08:16:45;;;;;;;7.90;4.53;;;2.80;99.90;;;;;;10184487;28;20031;-71
2023/01/28 08:21:36;;;;;;;8.63;3.85;;;2.80;99.90;;;;;;10185159;28;20028;-69
2023/01/28 08:26:26;;;;;;;7.57;4.10;;;2.90;99.90;;;;;;10184563;28;20270;-70
2023/01/28 08:31:17;;;;;;;7.10;3.28;;;3.00;99.90;;;;;;10189520;28;20389;-72
2023/01/28 08:36:08;;;;;;;4.85;2.88;;;3.00;99.90;;;;;;10186132;28;20081;-71
2023/01/28 08:40:59;;;;;;;5.07;2.80;;;3.10;99.90;;;;;;10188537;28;20096;-75
2023/01/28 08:45:49;;;;;;;5.00;2.67;;;3.10;99.90;;;;;;10186247;28;20055;-73
2023/01/28 08:50:40;;;;;;;4.07;2.97;;;3.20;99.90;;;;;;10185853;28;20028;-73
2023/01/28 08:55:32;;;;;;;3.20;2.45;;;3.20;99.90;;;;;;10192761;28;20559;-71
2023/01/28 09:00:23;;;;;;;4.07;2.83;;;3.20;99.90;;;;;;10180992;28;20036;-69
2023/01/28 09:05:14;;;;;;;3.55;2.60;;;3.20;99.90;;;;;;10182171;28;20028;-70
2023/01/28 09:10:05;;;;;;;6.57;3.42;;;3.20;99.90;;;;;;10182408;28;20460;-69
2023/01/28 09:15:04;;;;;;;4.82;2.55;;;3.30;99.90;;;;;;10188246;28;20020;-71
2023/01/28 09:19:55;;;;;;;4.53;2.33;;;3.30;99.90;;;;;;10186367;28;20114;-69
2023/01/28 09:24:46;;;;;;;4.45;2.45;;;3.40;99.90;;;;;;10198855;28;20074;-71
2023/01/28 09:29:37;;;;;;;5.90;3.13;;;3.40;99.90;;;;;;10185109;28;20464;-73
2023/01/28 09:34:28;;;;;;;3.63;2.35;;;3.40;99.90;;;;;;10181416;28;20158;-72
2023/01/28 09:39:18;;;;;;;3.20;2.38;;;3.50;99.90;;;;;;10179750;28;20028;-68
2023/01/28 09:44:27;;;;;;;4.50;1.98;;;3.40;99.90;;;;;;10181777;28;20028;-70
2023/01/28 09:49:34;;;;;;;4.22;2.30;;;3.60;99.90;;;;;;10182143;28;20032;-69
2023/01/28 09:54:39;;;;;;;4.85;2.13;;;3.70;99.90;;;;;;10192748;28;20031;-70
2023/01/28 09:59:34;;;;;;;5.45;2.67;;;3.80;99.90;;;;;;10180389;28;20371;-69
2023/01/28 10:04:49;;;;;;;3.35;2.08;;;3.90;99.90;;;;;;10182008;28;20016;-70
2023/01/28 10:09:45;;;;;;;6.25;2.80;;;3.90;99.90;;;;;;10183418;28;20032;-69
2023/01/28 10:14:54;;;;;;;5.03;2.53;;;4.00;99.90;;;;;;10181089;28;20035;-70
2023/01/28 10:20:15;;;;;;;5.45;3.00;;;4.10;99.90;;;;;;10181680;28;20028;-70
2023/01/28 10:25:20;;;;;;;4.85;2.72;;;4.10;99.90;;;;;;10179041;28;20020;-71
2023/01/28 10:30:24;;;;;;;4.87;3.07;;;4.10;99.90;;;;;;10179667;28;20024;-73
2023/01/28 10:35:15;;;;;;;4.57;2.55;;;4.30;99.90;;;;;;10179927;28;20052;-71
2023/01/28 10:40:17;;;;;;;7.57;3.13;;;4.30;99.90;;;;;;10178471;28;20031;-70
2023/01/28 10:45:20;;;;;;;4.03;2.63;;;4.50;99.90;;;;;;10178894;28;20048;-70
2023/01/28 10:50:19;;;;;;;5.05;3.22;;;4.60;99.90;;;;;;10178973;28;20040;-70
2023/01/28 10:55:13;;;;;;;6.07;2.88;;;4.50;99.90;;;;;;10180034;28;20067;-72
2023/01/28 11:00:19;;;;;;;5.57;2.92;;;4.50;99.90;;;;;;10186584;28;20601;-71
2023/01/28 11:05:10;;;;;;;;;;;4.50;99.90;;;;;;10186944;28;20020;-72
2023/01/28 11:10:35;;;;;;;4.68;2.80;;;4.60;99.90;;;;;;10185945;28;19912;-72
2023/01/28 11:15:27;;;;;;;4.72;2.60;;;4.60;99.90;;;;;;10185036;28;20118;-72
2023/01/28 11:20:21;;;;;;;4.93;2.22;;;4.60;99.90;;;;;;10185068;28;20115;-73
2023/01/28 11:25:27;;;;;;;6.93;3.35;;;4.70;99.90;;;;;;10187139;28;20020;-70
2023/01/28 11:30:31;;;;;;;4.80;3.13;;;4.60;99.90;;;;;;10187637;28;20365;-73
2023/01/28 11:35:29;;;;;;;6.65;3.80;;;4.60;99.90;;;;;;10186369;28;20424;-69
2023/01/28 11:40:20;;;;;;;6.18;3.05;;;4.80;99.90;;;;;;10188254;28;20095;-70
2023/01/28 11:45:28;;;;;;;4.82;2.22;;;4.80;99.90;;;;;;10186695;28;20123;-70
2023/01/28 11:50:41;;;;;;;5.57;3.25;;;4.60;99.90;;;;;;10174663;28;20043;-69
2023/01/28 11:55:37;;;;;;;5.28;2.78;;;4.60;99.90;;;;;;10175264;28;20107;-72
2023/01/28 12:00:34;;;;;;;6.90;3.45;;;4.50;99.90;;;;;;10184567;28;20031;-70
2023/01/28 12:06:03;;;;;;;4.30;2.20;;;4.40;99.90;;;;;;10183569;28;20053;-69
2023/01/28 12:11:11;;;;;;;6.43;3.20;;;4.40;99.90;;;;;;10183545;28;20036;-73
2023/01/28 12:16:24;;;;;;;4.18;2.20;;;4.40;99.90;;;;;;10183502;28;20031;-70
2023/01/28 12:21:27;;;;;;;7.13;3.47;;;4.40;99.90;;;;;;10180880;28;20050;-69
2023/01/28 12:26:58;;;;;;;5.72;2.88;;;4.30;99.90;;;;;;10184264;28;20022;-72
2023/01/28 12:32:29;;;;;;;4.13;2.65;;;4.40;99.90;;;;;;10159362;28;20127;-72
2023/01/28 12:37:45;;;;;;;6.63;2.65;;;4.40;99.90;;;;;;10186207;28;20071;-74
2023/01/28 12:42:47;;;;;;;5.60;2.60;;;4.30;99.90;;;;;;10164667;28;20168;-72
2023/01/28 12:47:40;;;;;;;6.40;3.00;;;4.30;99.90;;;;;;10182395;28;20048;-72
2023/01/28 12:52:40;;;;;;;4.20;2.38;;;4.20;99.90;;;;;;10193875;28;20043;-73
2023/01/28 12:57:34;;;;;;;5.25;2.88;;;4.10;99.90;;;;;;10182069;28;20016;-72
2023/01/28 13:02:38;;;;;;;4.03;3.03;;;4.00;99.90;;;;;;10182806;28;20028;-72
2023/01/28 13:07:50;;;;;;;4.60;2.42;;;4.00;99.90;;;;;;10180268;28;20066;-74
2023/01/28 13:12:41;;;;;;;5.82;2.95;;;4.00;99.90;;;;;;10181668;28;20063;-72
2023/01/28 13:17:32;;;;;;;3.47;2.22;;;3.90;99.90;;;;;;10181699;28;20462;-73
2023/01/28 13:22:32;;;;;;;6.10;2.38;;;3.90;99.90;;;;;;10180247;28;20115;-73
2023/01/28 13:27:26;;;;;;;5.63;2.83;;;3.90;99.90;;;;;;10182043;28;20043;-73
2023/01/28 13:32:30;;;;;;;5.13;3.33;;;3.90;99.90;;;;;;10181109;28;20160;-73
2023/01/28 13:37:38;;;;;;;3.97;2.90;;;3.90;99.90;;;;;;10168024;28;20020;-74
2023/01/28 13:42:30;;;;;;;6.90;2.72;;;3.90;99.90;;;;;;10185252;28;20024;-72
2023/01/28 13:47:32;;;;;;;3.28;2.60;;;3.90;99.90;;;;;;10178519;28;20044;-72
2023/01/28 13:52:27;;;;;;;5.55;2.88;;;3.90;99.90;;;;;;10193010;28;20751;-70
2023/01/28 13:57:43;;;;;;;5.30;2.33;;;3.90;99.90;;;;;;10177971;28;20070;-72
2023/01/28 14:03:09;;;;;;;5.65;2.78;;;3.80;99.90;;;;;;10179031;28;20496;-70
2023/01/28 14:08:21;;;;;;;4.70;3.10;;;3.80;99.90;;;;;;10123770;28;20104;-72
2023/01/28 14:13:24;;;;;;;3.60;1.88;;;3.80;99.90;;;;;;10179395;28;20039;-68
2023/01/28 14:18:34;;;;;;;9.15;3.08;;;3.80;99.90;;;;;;10179461;28;20024;-70
2023/01/28 14:23:29;;;;;;;4.65;2.80;;;3.80;99.90;;;;;;10179395;28;20051;-70
2023/01/28 14:28:54;;;;;;;4.57;2.42;;;3.80;99.90;;;;;;10180099;28;20016;-70
2023/01/28 14:33:46;;;;;;;8.55;4.25;;;3.80;99.90;;;;;;10139423;28;20564;-75
2023/01/28 14:38:40;;;;;;;7.75;3.17;;;3.80;99.90;;;;;;10176876;28;20031;-69
2023/01/28 14:43:30;;;;;;;5.65;3.25;;;3.90;99.90;;;;;;10151840;28;20033;-72
2023/01/28 14:48:26;;;;;;;5.03;2.75;;;4.00;99.90;;;;;;10173973;28;20054;-69
2023/01/28 14:53:17;;;;;;;;;;;3.90;99.90;;;;;;10181884;28;20036;-69
2023/01/28 14:58:49;;;;;;;3.17;2.15;;;3.90;99.90;;;;;;10186959;28;20020;-69
2023/01/28 15:03:44;;;;;;;6.00;3.20;;;3.90;99.90;;;;;;10183261;28;20512;-72
2023/01/28 15:08:35;;;;;;;4.70;2.13;;;3.90;99.90;;;;;;10177774;28;20115;-73
2023/01/28 15:13:28;;;;;;;5.95;2.75;;;3.80;99.90;;;;;;10178539;28;20135;-70
2023/01/28 15:18:23;;;;;;;4.75;2.78;;;3.90;99.90;;;;;;10178584;28;20067;-72
2023/01/28 15:23:17;;;;;;;4.90;2.55;;;3.90;99.90;;;;;;10178002;28;20486;-70
2023/01/28 15:28:16;;;;;;;6.45;2.03;;;3.90;99.90;;;;;;10177901;28;20548;-71
2023/01/28 15:33:15;;;;;;;4.90;1.95;;;3.90;99.90;;;;;;10177731;28;20028;-70
2023/01/28 15:38:08;;;;;;;4.85;2.50;;;3.90;99.90;;;;;;10177217;28;20024;-70
2023/01/28 15:42:59;;;;;;;2.55;2.10;;;3.90;99.90;;;;;;10182428;28;20020;-71
2023/01/28 15:47:51;;;;;;;4.40;2.38;;;3.90;99.90;;;;;;10185529;28;20484;-71
2023/01/28 15:52:44;;;;;;;4.22;2.05;;;3.80;99.90;;;;;;10197340;28;20040;-69
2023/01/28 15:57:35;;;;;;;4.13;2.03;;;3.80;99.90;;;;;;10184069;28;20111;-71
2023/01/28 16:02:28;;;;;;;4.80;2.17;;;3.80;99.90;;;;;;10183910;28;20114;-69
2023/01/28 16:07:19;;;;;;;3.08;2.10;;;3.80;99.90;;;;;;10184709;28;20020;-71
2023/01/28 16:12:13;;;;;;;4.95;2.50;;;3.80;99.90;;;;;;10183880;28;20032;-71
2023/01/28 16:17:04;;;;;;;2.95;1.75;;;3.70;99.90;;;;;;10183757;28;20028;-70
2023/01/28 16:21:55;;;;;;;3.28;1.98;;;3.70;99.90;;;;;;10184572;28;20036;-70
2023/01/28 16:26:55;;;;;;;3.58;2.10;;;3.70;99.90;;;;;;10192837;28;20048;-69
2023/01/28 16:31:46;;;;;;;3.83;2.28;;;3.80;99.90;;;;;;10201772;28;20452;-71
2023/01/28 16:36:37;;;;;;;4.38;1.73;;;3.70;99.90;;;;;;10185082;28;20028;-72
2023/01/28 16:41:32;;;;;;;4.20;2.13;;;3.70;99.90;;;;;;10189198;28;20032;-72
2023/01/28 16:46:26;;;;;;;3.05;2.00;;;3.70;99.90;;;;;;10183286;28;20058;-69
2023/01/28 16:51:18;;;;;;;1.90;1.45;;;3.70;99.90;;;;;;10182931;28;20035;-72
2023/01/28 16:56:17;;;;;;;4.55;2.38;;;3.60;99.90;;;;;;10181539;28;20399;-72
2023/01/28 17:01:08;;;;;;;4.53;2.13;;;3.60;99.90;;;;;;10182128;28;20077;-72
2023/01/28 17:05:58;;;;;;;3.30;1.90;;;3.60;99.90;;;;;;10181952;28;20481;-71
2023/01/28 17:10:53;;;;;;;3.70;2.03;;;3.50;99.90;;;;;;10181708;28;20031;-72
2023/01/28 17:15:44;;;;;;;4.22;2.22;;;3.60;99.90;;;;;;10182122;28;20073;-69
2023/01/28 17:20:39;;;;;;;4.10;2.22;;;3.60;99.90;;;;;;10181950;28;20073;-68
2023/01/28 17:25:29;;;;;;;3.65;2.30;;;3.60;99.90;;;;;;10182353;28;20019;-69
2023/01/28 17:30:20;;;;;;;3.72;2.10;;;3.60;99.90;;;;;;10181334;28;20036;-69
2023/01/28 17:35:11;;;;;;;3.50;2.15;;;3.60;99.90;;;;;;10179875;28;20377;-69
2023/01/28 17:40:01;;;;;;;4.50;2.10;;;3.60;99.90;;;;;;10180147;28;20057;-70
2023/01/28 17:44:52;;;;;;;3.38;2.00;;;3.50;99.90;;;;;;10184366;28;20016;-69
2023/01/28 17:49:43;;;;;;;4.75;2.33;;;3.40;99.90;;;;;;10180281;28;20032;-70
2023/01/28 17:54:34;;;;;;;3.00;2.15;;;3.50;99.90;;;;;;10192940;28;20367;-68
2023/01/28 17:59:26;;;;;;;4.28;2.05;;;3.60;99.90;;;;;;10183584;28;20138;-68
2023/01/28 18:04:17;;;;;;;4.25;2.05;;;3.60;99.90;;;;;;10181499;28;20102;-71
2023/01/28 18:09:08;;;;;;;5.60;2.58;;;3.60;99.90;;;;;;10182008;28;20028;-71
2023/01/28 18:13:59;;;;;;;6.30;3.10;;;3.60;99.90;;;;;;10182187;28;20026;-71
2023/01/28 18:18:50;;;;;;;8.77;2.70;;;3.50;99.90;;;;;;10178612;28;20028;-69
2023/01/28 18:23:40;;;;;;;5.05;2.33;;;3.60;99.90;;;;;;10180010;28;20323;-70
2023/01/28 18:28:31;;;;;;;4.07;2.72;;;3.60;99.90;;;;;;10179675;28;20513;-72
2023/01/28 18:33:22;;;;;;;6.60;2.97;;;3.50;99.90;;;;;;10178880;28;20081;-71
2023/01/28 18:38:14;;;;;;;3.63;2.45;;;3.50;99.90;;;;;;10179346;28;20016;-72
2023/01/28 18:43:05;;;;;;;4.28;2.38;;;3.50;99.90;;;;;;10183189;28;20022;-69
2023/01/28 18:47:55;;;;;;;7.32;3.10;;;3.40;99.90;;;;;;10178860;28;20056;-72
2023/01/28 18:52:46;;;;;;;7.22;2.90;;;3.40;99.90;;;;;;10177480;28;20584;-70
2023/01/28 18:57:37;;;;;;;4.30;3.00;;;3.30;99.90;;;;;;10151239;28;20021;-71
2023/01/28 19:02:28;;;;;;;5.45;3.25;;;3.40;99.90;;;;;;10173978;28;20035;-69
2023/01/28 19:07:18;;;;;;;3.13;2.35;;;3.40;99.90;;;;;;10176028;28;20028;-69
2023/01/28 19:12:10;;;;;;;5.47;2.63;;;3.30;99.90;;;;;;10166021;28;20071;-69
2023/01/28 19:17:06;;;;;;;4.93;2.90;;;3.30;99.90;;;;;;10179080;28;20277;-72
2023/01/28 19:22:00;;;;;;;5.90;3.25;;;3.30;99.90;;;;;;10184710;28;20031;-71
2023/01/28 19:26:51;;;;;;;3.83;2.33;;;3.40;99.90;;;;;;10184562;28;20027;-69
2023/01/28 19:31:43;;;;;;;3.72;2.47;;;3.40;99.90;;;;;;10186373;28;20028;-69
2023/01/28 19:36:34;;;;;;;5.15;2.60;;;3.20;99.90;;;;;;10186518;28;20061;-70
2023/01/28 19:41:26;;;;;;;3.92;2.30;;;3.10;99.90;;;;;;10189594;28;20247;-70
2023/01/28 19:46:17;;;;;;;3.75;2.00;;;3.00;99.90;;;;;;10183596;28;20442;-69
2023/01/28 19:51:09;;;;;;;5.93;2.45;;;3.10;99.90;;;;;;10190213;28;20040;-70
2023/01/28 19:56:09;;;;;;;5.40;2.83;;;3.10;99.90;;;;;;10184790;28;20016;-73
2023/01/28 20:01:10;;;;;;;4.40;2.40;;;3.10;99.90;;;;;;10186077;28;20047;-73
2023/01/28 20:06:16;;;;;;;5.78;3.40;;;3.10;99.90;;;;;;10189270;28;20035;-73
2023/01/28 20:11:17;;;;;;;3.45;2.13;;;3.10;99.90;;;;;;10186411;28;20085;-71
2023/01/28 20:16:18;;;;;;;4.88;2.47;;;3.10;99.90;;;;;;10184517;28;20050;-69
2023/01/28 20:21:08;;;;;;;5.00;2.63;;;3.10;99.90;;;;;;10183911;28;20036;-69
2023/01/28 20:26:02;;;;;;;4.85;2.42;;;3.00;99.90;;;;;;10182937;28;20468;-71
2023/01/28 20:30:53;;;;;;;6.97;3.42;;;3.00;99.90;;;;;;10183005;28;20044;-73
2023/01/28 20:35:44;;;;;;;4.50;3.15;;;2.90;99.90;;;;;;10182993;28;20024;-72
2023/01/28 20:40:36;;;;;;;4.80;2.83;;;2.80;99.90;;;;;;10183650;28;20028;-72
2023/01/28 20:45:27;;;;;;;4.30;2.90;;;2.80;99.90;;;;;;10184114;28;20156;-72
2023/01/28 20:50:17;;;;;;;5.68;2.88;;;2.80;99.90;;;;;;10183130;28;20562;-72
2023/01/28 20:55:09;;;;;;;5.30;2.97;;;2.70;99.90;;;;;;10192253;28;20024;-71
2023/01/28 21:00:00;;;;;;;6.72;4.32;;;2.80;99.90;;;;;;10183053;28;20031;-70
2023/01/28 21:04:51;;;;;;;4.15;2.63;;;2.70;99.90;;;;;;10169497;28;20031;-69
2023/01/28 21:09:42;;;;;;;4.82;2.60;;;2.80;99.90;;;;;;10169907;28;20039;-71
2023/01/28 21:14:35;;;;;;;4.68;2.72;;;2.70;99.90;;;;;;10177161;28;20039;-70
2023/01/28 21:19:26;;;;;;;5.50;3.20;;;2.80;99.90;;;;;;10179711;28;20032;-72
2023/01/28 21:24:16;;;;;;;6.25;2.58;;;2.80;99.90;;;;;;10180923;28;20032;-72
2023/01/28 21:29:07;;;;;;;5.82;2.97;;;2.90;99.90;;;;;;10179500;28;20040;-70
2023/01/28 21:34:00;;;;;;;7.00;2.95;;;2.80;99.90;;;;;;10181166;28;20028;-70
2023/01/28 21:39:01;;;;;;;5.32;3.22;;;2.80;99.90;;;;;;10180958;28;20024;-72
2023/01/28 21:43:56;;;;;;;6.43;3.50;;;2.70;99.90;;;;;;10179052;28;20043;-71
2023/01/28 21:48:50;;;;;;;5.15;2.80;;;2.80;99.90;;;;;;10180287;28;20043;-70
2023/01/28 21:53:41;;;;;;;5.78;3.50;;;2.70;99.90;;;;;;10187810;28;20451;-73
2023/01/28 22:03:44;;;;;;;6.85;2.55;;;2.60;99.90;;;;;;10180445;28;20444;-71
2023/01/28 22:08:35;;;;;;;5.45;2.88;;;2.60;99.90;;;;;;10180339;28;20150;-73
2023/01/28 22:13:25;;;;;;;6.65;3.20;;;2.60;99.90;;;;;;10179805;28;20401;-71
2023/01/28 22:18:16;;;;;;;7.78;2.75;;;2.60;99.90;;;;;;10180022;28;20028;-69
2023/01/28 22:23:16;;;;;;;6.20;3.28;;;2.60;99.90;;;;;;10179200;28;20024;-72
2023/01/28 22:28:07;;;;;;;8.60;2.70;;;2.60;99.90;;;;;;10178548;28;20027;-73
2023/01/28 22:32:57;;;;;;;4.00;2.67;;;2.60;99.90;;;;;;10179365;28;20494;-71
2023/01/28 22:37:48;;;;;;;6.63;2.92;;;2.60;99.90;;;;;;10181074;28;20030;-71
2023/01/28 22:42:39;;;;;;;5.13;2.53;;;2.50;99.90;;;;;;10179782;28;20226;-72
2023/01/28 22:47:30;;;;;;;5.60;2.92;;;2.40;99.90;;;;;;10186796;28;20459;-71
2023/01/28 22:52:20;;;;;;;8.82;3.15;;;2.40;99.90;;;;;;10195104;28;20042;-74
2023/01/28 22:57:11;;;;;;;5.65;3.20;;;2.40;99.90;;;;;;10190723;28;20120;-75
2023/01/28 23:02:01;;;;;;;4.63;2.80;;;2.50;99.90;;;;;;10191204;28;20016;-72
2023/01/28 23:06:52;;;;;;;4.53;2.65;;;2.40;99.90;;;;;;10191792;28;20035;-71
2023/01/28 23:11:43;;;;;;;4.55;3.00;;;2.40;99.90;;;;;;10190772;28;20039;-73
2023/01/28 23:26:55;;;;;;;6.65;3.00;;;2.40;99.90;;;;;;10191704;28;20030;-71
2023/01/28 23:31:47;;;;;;;4.80;3.50;;;2.50;99.90;;;;;;10192528;28;20091;-71
2023/01/28 23:36:37;;;;;;;5.97;2.78;;;2.50;99.90;;;;;;10193623;28;20470;-72
2023/01/28 23:41:28;;;;;;;4.82;2.13;;;2.50;99.90;;;;;;10197068;28;20710;-71
2023/01/28 23:46:35;;;;;;;3.78;2.63;;;2.40;99.90;;;;;;10191145;28;20111;-73
2023/01/28 23:51:26;;;;;;;4.63;2.45;;;2.30;99.90;;;;;;10200110;28;20425;-73
2023/01/28 23:56:17;;;;;;;5.88;2.53;;;2.30;99.90;;;;;;10195167;28;20031;-72
